createdAt,value
2022-10-05T00:01:39.843Z,3.40
2022-10-05T00:04:20.818Z,3.20
2022-10-05T00:07:09.833Z,3.50
2022-10-05T00:09:38.828Z,3.80
2022-10-05T00:12:19.703Z,3.60
2022-10-05T00:14:51.221Z,3.30
2022-10-05T00:17:25.534Z,3.50
2022-10-05T00:19:54.978Z,3.50
2022-10-05T00:22:30.315Z,3.60
2022-10-05T00:25:01.405Z,4.20
2022-10-05T00:27:37.867Z,3.50
2022-10-05T00:30:21.123Z,3.90
2022-10-05T00:32:50.663Z,3.60
2022-10-05T00:35:20.551Z,4.00
2022-10-05T00:37:55.232Z,3.90
2022-10-05T00:40:35.695Z,3.80
2022-10-05T00:43:10.191Z,3.70
2022-10-05T00:45:46.635Z,3.60
2022-10-05T00:48:33.371Z,3.80
2022-10-05T00:51:13.635Z,3.30
2022-10-05T00:53:51.224Z,3.80
2022-10-05T00:56:38.135Z,3.50
2022-10-05T00:59:25.970Z,3.80
2022-10-05T01:02:07.357Z,3.30
2022-10-05T01:04:37.413Z,3.10
2022-10-05T01:07:44.359Z,3.60
2022-10-05T01:10:33.222Z,3.50
2022-10-05T01:13:01.802Z,3.20
2022-10-05T01:15:56.212Z,3.50
2022-10-05T01:18:26.833Z,3.40
2022-10-05T01:21:07.082Z,3.60
2022-10-05T01:23:57.475Z,3.50
2022-10-05T01:26:57.003Z,3.40
2022-10-05T01:29:33.964Z,3.70
2022-10-05T01:32:26.407Z,4.10
2022-10-05T01:35:16.499Z,3.80
2022-10-05T01:38:02.899Z,3.10
2022-10-05T01:41:09.991Z,3.40
2022-10-05T01:43:42.462Z,3.70
2022-10-05T01:46:24.773Z,3.40
2022-10-05T01:48:56.241Z,3.10
2022-10-05T01:51:43.132Z,3.30
2022-10-05T01:54:30.967Z,3.20
2022-10-05T01:57:16.962Z,3.40
2022-10-05T02:00:04.182Z,3.60
2022-10-05T02:03:10.868Z,3.40
2022-10-05T02:05:44.259Z,3.80
2022-10-05T02:08:24.220Z,3.60
2022-10-05T02:11:03.858Z,3.70
2022-10-05T02:13:44.621Z,3.70
2022-10-05T02:16:18.297Z,3.90
2022-10-05T02:19:02.987Z,3.70
2022-10-05T02:21:34.819Z,3.40
2022-10-05T02:24:11.373Z,3.40
2022-10-05T02:26:42.020Z,3.60
2022-10-05T02:29:15.752Z,3.70
2022-10-05T02:32:14.757Z,3.60
2022-10-05T02:34:44.568Z,3.70
2022-10-05T02:37:50.846Z,3.50
2022-10-05T02:40:26.747Z,3.80
2022-10-05T02:43:13.805Z,3.40
2022-10-05T02:46:22.310Z,3.70
2022-10-05T02:49:20.814Z,4.00
2022-10-05T02:52:10.693Z,3.90
2022-10-05T02:54:57.403Z,3.90
2022-10-05T02:57:31.417Z,3.60
2022-10-05T03:00:05.019Z,3.50
2022-10-05T03:03:07.704Z,3.60
2022-10-05T03:05:55.945Z,4.00
2022-10-05T03:08:40.918Z,3.70
2022-10-05T03:11:22.925Z,3.90
2022-10-05T03:13:57.303Z,3.90
2022-10-05T03:16:47.323Z,3.30
2022-10-05T03:19:54.611Z,3.60
2022-10-05T03:23:02.441Z,3.60
2022-10-05T03:25:33.151Z,3.70
2022-10-05T03:28:22.582Z,3.70
2022-10-05T03:31:17.684Z,4.00
2022-10-05T03:33:54.352Z,3.90
2022-10-05T03:36:43.471Z,4.10
2022-10-05T03:39:28.398Z,3.80
2022-10-05T03:42:05.622Z,4.00
2022-10-05T03:44:41.477Z,4.20
2022-10-05T03:47:22.761Z,4.00
2022-10-05T03:50:22.273Z,4.10
2022-10-05T03:53:07.849Z,3.90
2022-10-05T03:55:44.626Z,3.90
2022-10-05T03:58:33.383Z,4.30
2022-10-05T04:01:11.663Z,3.40
2022-10-05T04:03:50.523Z,3.70
2022-10-05T04:06:31.007Z,4.20
2022-10-05T04:09:06.256Z,3.70
2022-10-05T04:11:47.097Z,3.80
2022-10-05T04:14:51.213Z,3.30
2022-10-05T04:17:44.727Z,3.80
2022-10-05T04:20:34.050Z,3.70
2022-10-05T04:23:19.751Z,2.90
2022-10-05T04:25:57.827Z,3.60
2022-10-05T04:28:59.401Z,3.70
2022-10-05T04:31:46.672Z,3.40
2022-10-05T04:34:27.906Z,3.50
2022-10-05T04:37:04.171Z,4.10
2022-10-05T04:39:47.161Z,4.00
2022-10-05T04:42:29.909Z,3.90
2022-10-05T04:45:43.855Z,3.70
2022-10-05T04:48:15.612Z,3.50
2022-10-05T04:51:03.358Z,4.40
2022-10-05T04:53:41.050Z,5.00
2022-10-05T04:56:18.973Z,5.00
2022-10-05T04:58:57.160Z,4.90
2022-10-05T05:01:44.298Z,4.70
2022-10-05T05:04:21.047Z,4.90
2022-10-05T05:07:08.818Z,5.50
2022-10-05T05:10:01.990Z,4.30
2022-10-05T05:12:42.663Z,4.90
2022-10-05T05:15:42.265Z,4.90
2022-10-05T05:18:26.171Z,5.00
2022-10-05T05:21:40.581Z,4.60
2022-10-05T05:24:21.255Z,4.70
2022-10-05T05:26:59.043Z,5.00
2022-10-05T05:29:49.086Z,4.60
2022-10-05T05:32:53.055Z,4.80
2022-10-05T05:35:40.095Z,4.70
2022-10-05T05:38:28.806Z,4.60
2022-10-05T05:41:00.584Z,4.70
2022-10-05T05:43:38.433Z,4.80
2022-10-05T05:46:16.393Z,4.70
2022-10-05T05:48:47.791Z,4.70
2022-10-05T05:51:33.362Z,4.60
2022-10-05T05:54:25.402Z,4.30
2022-10-05T05:57:17.944Z,4.70
2022-10-05T06:00:06.208Z,5.30
2022-10-05T06:03:14.495Z,5.00
2022-10-05T06:06:17.498Z,5.10
2022-10-05T06:09:03.796Z,5.40
2022-10-05T06:11:52.561Z,5.80
2022-10-05T06:14:53.499Z,4.90
2022-10-05T06:17:22.298Z,4.40
2022-10-05T06:19:55.750Z,4.00
2022-10-05T06:22:42.175Z,4.60
2022-10-05T06:25:13.947Z,4.70
2022-10-05T06:28:04.296Z,4.80
2022-10-05T06:31:13.547Z,4.20
2022-10-05T06:33:55.233Z,3.90
2022-10-05T06:36:53.757Z,4.00
2022-10-05T06:40:00.766Z,4.20
2022-10-05T06:42:52.676Z,4.20
2022-10-05T06:46:03.309Z,3.90
2022-10-05T06:48:56.400Z,4.10
2022-10-05T06:51:56.115Z,4.10
2022-10-05T06:54:43.655Z,3.70
2022-10-05T06:57:36.813Z,4.20
2022-10-05T07:00:27.653Z,4.10
2022-10-05T07:03:15.449Z,4.00
2022-10-05T07:05:53.247Z,4.20
2022-10-05T07:08:31.352Z,3.80
2022-10-05T07:11:31.482Z,3.60
2022-10-05T07:14:09.992Z,4.50
2022-10-05T07:16:45.734Z,4.80
2022-10-05T07:20:06.664Z,5.00
2022-10-05T07:23:14.157Z,4.00
2022-10-05T07:26:09.979Z,3.80
2022-10-05T07:28:47.675Z,4.10
2022-10-05T07:31:16.720Z,4.00
2022-10-05T07:33:53.650Z,4.30
2022-10-05T07:37:06.571Z,4.00
2022-10-05T07:39:59.000Z,3.90
2022-10-05T07:42:48.778Z,3.90
2022-10-05T07:45:49.699Z,4.10
2022-10-05T07:48:27.041Z,3.60
2022-10-05T07:51:08.105Z,3.30
2022-10-05T07:53:41.706Z,3.40
2022-10-05T07:56:41.073Z,3.70
2022-10-05T07:59:33.350Z,3.80
2022-10-05T08:02:23.272Z,3.40
2022-10-05T08:05:06.363Z,3.80
2022-10-05T08:07:36.989Z,3.80
2022-10-05T08:10:39.273Z,3.30
2022-10-05T08:13:19.937Z,3.60
2022-10-05T08:15:56.440Z,3.90
2022-10-05T08:18:37.685Z,3.60
2022-10-05T08:21:12.198Z,4.00
2022-10-05T08:24:27.490Z,3.80
2022-10-05T08:27:32.937Z,3.30
2022-10-05T08:30:14.070Z,3.60
2022-10-05T08:32:55.507Z,3.20
2022-10-05T08:35:39.153Z,4.20
2022-10-05T08:38:20.225Z,4.20
2022-10-05T08:40:48.698Z,3.40
2022-10-05T08:43:41.962Z,3.60
2022-10-05T08:46:41.447Z,3.60
2022-10-05T08:49:42.413Z,3.20
2022-10-05T08:52:17.140Z,3.00
2022-10-05T08:55:07.638Z,3.10
2022-10-05T08:58:04.278Z,3.20
2022-10-05T09:00:58.462Z,3.00
2022-10-05T09:06:46.634Z,2.90
2022-10-05T09:09:52.692Z,2.50
2022-10-05T09:12:33.256Z,3.00
2022-10-05T09:15:31.782Z,3.00
2022-10-05T09:18:12.102Z,3.30
2022-10-05T09:20:52.261Z,2.60
2022-10-05T09:23:40.609Z,2.40
2022-10-05T09:26:44.927Z,2.40
2022-10-05T09:29:38.086Z,2.60
2022-10-05T09:32:34.630Z,2.40
2022-10-05T09:35:39.091Z,2.80
2022-10-05T09:41:32.037Z,2.80
2022-10-05T09:44:34.731Z,2.40
2022-10-05T09:47:33.510Z,2.30
2022-10-05T09:50:14.379Z,2.70
2022-10-05T09:53:05.900Z,2.40
2022-10-05T09:56:06.638Z,2.80
2022-10-05T09:58:50.376Z,2.90
2022-10-05T10:04:25.057Z,2.70
2022-10-05T10:06:53.607Z,2.30
2022-10-05T10:09:38.834Z,2.70
2022-10-05T10:12:19.960Z,2.10
2022-10-05T10:15:02.497Z,2.80
2022-10-05T10:17:51.639Z,2.70
2022-10-05T10:21:09.590Z,2.40
2022-10-05T10:24:11.270Z,2.60
2022-10-05T10:26:58.562Z,3.00
2022-10-05T10:29:33.086Z,2.90
2022-10-05T10:32:39.153Z,2.60
2022-10-05T10:35:31.560Z,2.50
2022-10-05T10:38:32.236Z,2.00
2022-10-05T10:41:28.461Z,3.90
2022-10-05T10:44:15.989Z,2.30
2022-10-05T10:47:35.368Z,2.80
2022-10-05T10:50:12.503Z,2.70
2022-10-05T10:53:18.627Z,3.10
2022-10-05T10:56:12.390Z,3.40
2022-10-05T10:59:31.691Z,3.30
2022-10-05T11:02:37.882Z,3.00
2022-10-05T11:05:35.601Z,2.00
2022-10-05T11:08:20.357Z,2.70
2022-10-05T11:11:12.701Z,2.20
2022-10-05T11:13:44.355Z,3.00
2022-10-05T11:16:22.052Z,2.50
2022-10-05T11:19:20.615Z,2.70
2022-10-05T11:22:00.724Z,2.50
2022-10-05T11:24:34.585Z,2.70
2022-10-05T11:27:27.360Z,2.50
2022-10-05T11:30:06.105Z,2.50
2022-10-05T11:33:01.538Z,1.80
2022-10-05T11:36:10.255Z,2.70
2022-10-05T11:38:55.613Z,1.60
2022-10-05T11:42:01.772Z,1.70
2022-10-05T11:44:39.456Z,1.60
2022-10-05T11:47:32.366Z,2.70
2022-10-05T11:50:27.188Z,2.20
2022-10-05T11:53:12.725Z,2.60
2022-10-05T11:56:00.113Z,2.20
2022-10-05T11:58:51.868Z,3.30
2022-10-05T12:01:42.455Z,2.70
2022-10-05T12:04:43.496Z,2.20
2022-10-05T12:07:30.810Z,2.50
2022-10-05T12:10:14.454Z,2.90
2022-10-05T12:13:15.394Z,2.50
2022-10-05T12:15:48.492Z,2.50
2022-10-05T12:18:33.045Z,2.20
2022-10-05T12:21:42.382Z,2.10
2022-10-05T12:24:44.667Z,2.60
2022-10-05T12:27:25.834Z,2.50
2022-10-05T12:30:04.555Z,2.20
2022-10-05T12:32:45.279Z,2.50
2022-10-05T12:35:48.356Z,2.60
2022-10-05T12:38:28.798Z,2.30
2022-10-05T12:41:04.637Z,2.90
2022-10-05T12:43:36.342Z,3.20
2022-10-05T12:46:31.703Z,3.00
2022-10-05T12:49:14.832Z,3.00
2022-10-05T12:51:52.628Z,2.50
2022-10-05T12:55:00.332Z,2.30
2022-10-05T12:57:46.941Z,3.00
2022-10-05T13:00:23.247Z,2.80
2022-10-05T13:03:08.993Z,2.50
2022-10-05T13:06:02.650Z,2.90
2022-10-05T13:08:53.465Z,3.00
2022-10-05T13:11:27.893Z,2.60
2022-10-05T13:14:04.567Z,2.60
2022-10-05T13:16:36.313Z,3.00
2022-10-05T13:19:17.026Z,3.00
2022-10-05T13:22:10.248Z,6.90
2022-10-05T13:24:52.776Z,7.20
2022-10-05T13:27:28.113Z,4.80
2022-10-05T13:30:15.635Z,4.10
2022-10-05T13:32:49.461Z,3.50
2022-10-05T13:35:36.352Z,3.40
2022-10-05T13:38:34.631Z,2.90
2022-10-05T13:41:24.010Z,3.10
2022-10-05T13:44:01.568Z,2.50
2022-10-05T13:46:49.389Z,2.70
2022-10-05T13:49:23.855Z,3.00
2022-10-05T13:52:09.135Z,3.20
2022-10-05T13:54:47.040Z,2.50
2022-10-05T13:58:23.611Z,3.00
2022-10-05T14:00:59.160Z,2.70
2022-10-05T14:03:38.301Z,3.10
2022-10-05T14:06:15.620Z,3.00
2022-10-05T14:08:51.536Z,2.70
2022-10-05T14:11:47.871Z,3.60
2022-10-05T14:14:29.769Z,3.50
2022-10-05T14:22:12.415Z,3.70
2022-10-05T14:24:51.653Z,2.80
2022-10-05T14:27:33.405Z,2.90
2022-10-05T14:30:18.630Z,2.70
2022-10-05T14:33:07.080Z,3.70
2022-10-05T14:35:50.948Z,3.40
2022-10-05T14:38:30.250Z,4.10
2022-10-05T14:41:10.829Z,5.40
2022-10-05T14:43:51.170Z,5.40
2022-10-05T14:46:23.408Z,5.80
2022-10-05T14:49:21.942Z,5.80
2022-10-05T14:51:51.948Z,5.80
2022-10-05T14:54:54.182Z,5.30
2022-10-05T14:57:59.157Z,5.20
2022-10-05T15:00:35.419Z,5.10
2022-10-05T15:03:32.275Z,3.30
2022-10-05T15:06:02.562Z,3.60
2022-10-05T15:08:49.305Z,3.20
2022-10-05T15:11:44.510Z,3.20
2022-10-05T15:14:25.381Z,3.30
2022-10-05T15:16:59.201Z,3.00
2022-10-05T15:19:53.064Z,3.20
2022-10-05T15:22:49.294Z,2.80
2022-10-05T15:25:27.416Z,3.30
2022-10-05T15:28:05.026Z,3.20
2022-10-05T15:30:39.623Z,3.40
2022-10-05T15:33:25.616Z,3.90
2022-10-05T15:36:14.935Z,3.80
2022-10-05T15:38:58.146Z,3.80
2022-10-05T15:41:41.851Z,4.50
2022-10-05T15:44:20.267Z,4.10
2022-10-05T15:46:57.248Z,4.20
2022-10-05T15:49:38.326Z,5.40
2022-10-05T15:52:18.114Z,4.40
2022-10-05T15:55:09.699Z,4.60
2022-10-05T15:57:41.965Z,4.60
2022-10-05T16:00:14.340Z,4.50
2022-10-05T16:03:12.209Z,4.60
2022-10-05T16:06:26.054Z,4.80
2022-10-05T16:09:32.959Z,4.40
2022-10-05T16:12:32.753Z,4.50
2022-10-05T16:15:26.895Z,4.40
2022-10-05T16:18:34.332Z,4.70
2022-10-05T16:21:19.916Z,4.70
2022-10-05T16:23:54.903Z,4.50
2022-10-05T16:26:50.160Z,4.50
2022-10-05T16:29:54.075Z,4.90
2022-10-05T16:32:30.505Z,4.40
2022-10-05T16:35:17.966Z,4.90
2022-10-05T16:37:59.760Z,5.00
2022-10-05T16:40:46.676Z,4.90
2022-10-05T16:43:18.333Z,5.00
2022-10-05T16:45:52.163Z,5.30
2022-10-05T16:48:32.714Z,4.60
2022-10-05T16:51:04.475Z,5.20
2022-10-05T16:53:36.935Z,5.00
2022-10-05T16:56:11.925Z,4.60
2022-10-05T16:58:46.589Z,4.90
2022-10-05T17:01:46.767Z,4.70
2022-10-05T17:04:49.608Z,5.20
2022-10-05T17:07:27.352Z,5.30
2022-10-05T17:09:59.639Z,5.10
2022-10-05T17:12:43.421Z,5.20
2022-10-05T17:15:33.748Z,5.10
2022-10-05T17:19:01.181Z,5.40
2022-10-05T17:21:44.774Z,4.90
2022-10-05T17:24:22.207Z,6.00
2022-10-05T17:27:21.619Z,6.10
2022-10-05T17:29:53.366Z,5.30
2022-10-05T17:32:39.850Z,5.50
2022-10-05T17:35:20.803Z,6.10
2022-10-05T17:38:14.506Z,5.30
2022-10-05T17:41:22.077Z,5.60
2022-10-05T17:44:24.749Z,5.70
2022-10-05T17:46:56.404Z,6.10
2022-10-05T17:49:47.309Z,5.30
2022-10-05T17:52:45.340Z,4.60
2022-10-05T17:55:42.597Z,4.90
2022-10-05T17:58:29.887Z,5.20
2022-10-05T18:00:58.732Z,5.70
2022-10-05T18:03:40.277Z,5.90
2022-10-05T18:06:48.419Z,6.50
2022-10-05T18:09:23.397Z,5.50
2022-10-05T18:12:16.811Z,5.00
2022-10-05T18:15:05.979Z,5.20
2022-10-05T18:17:56.373Z,5.60
2022-10-05T18:20:26.765Z,4.90
2022-10-05T18:23:24.499Z,5.30
2022-10-05T18:26:04.095Z,5.10
2022-10-05T18:28:57.067Z,4.80
2022-10-05T18:32:01.600Z,4.60
2022-10-05T18:34:44.322Z,5.00
2022-10-05T18:37:48.335Z,4.60
2022-10-05T18:40:59.624Z,4.70
2022-10-05T18:43:34.925Z,4.90
2022-10-05T18:46:22.392Z,5.60
2022-10-05T18:49:12.788Z,5.00
2022-10-05T18:52:05.830Z,5.10
2022-10-05T18:55:06.857Z,5.40
2022-10-05T18:58:00.040Z,5.10
2022-10-05T19:01:00.777Z,4.80
2022-10-05T19:03:49.433Z,4.50
2022-10-05T19:06:56.681Z,4.80
2022-10-05T19:10:02.171Z,4.70
2022-10-05T19:12:45.807Z,4.90
2022-10-05T19:15:17.369Z,4.80
2022-10-05T19:18:08.277Z,4.60
2022-10-05T19:21:01.225Z,4.30
2022-10-05T19:23:51.313Z,4.60
2022-10-05T19:26:32.082Z,4.50
2022-10-05T19:29:24.527Z,4.40
2022-10-05T19:32:19.324Z,4.30
2022-10-05T19:34:55.898Z,4.10
2022-10-05T19:37:50.288Z,4.10
2022-10-05T19:40:39.454Z,4.90
2022-10-05T19:43:21.246Z,4.40
2022-10-05T19:46:05.960Z,5.00
2022-10-05T19:48:45.550Z,4.90
2022-10-05T19:51:29.800Z,5.10
2022-10-05T19:54:02.679Z,5.00
2022-10-05T19:56:46.201Z,4.90
2022-10-05T19:59:19.924Z,5.30
2022-10-05T20:01:55.735Z,4.70
2022-10-05T20:04:41.907Z,5.00
2022-10-05T20:07:22.030Z,4.60
2022-10-05T20:10:20.209Z,4.40
2022-10-05T20:12:56.228Z,4.40
2022-10-05T20:15:49.555Z,4.50
2022-10-05T20:18:55.596Z,4.50
2022-10-05T20:21:49.487Z,4.30
2022-10-05T20:24:21.844Z,4.50
2022-10-05T20:27:06.932Z,3.90
2022-10-05T20:29:47.275Z,4.30
2022-10-05T20:32:18.201Z,4.00
2022-10-05T20:34:49.639Z,4.30
2022-10-05T20:37:19.272Z,4.00
2022-10-05T20:39:48.473Z,4.10
2022-10-05T20:42:18.944Z,3.90
2022-10-05T20:44:47.689Z,4.20
2022-10-05T20:47:16.376Z,4.10
2022-10-05T20:49:45.169Z,4.10
2022-10-05T20:52:15.489Z,4.10
2022-10-05T20:57:17.681Z,4.30
2022-10-05T20:59:46.280Z,4.10
2022-10-05T21:02:15.047Z,3.90
2022-10-05T21:04:47.906Z,4.50
2022-10-05T21:07:18.390Z,4.20
2022-10-05T21:09:47.472Z,4.20
2022-10-05T21:12:19.116Z,4.00
2022-10-05T21:14:47.694Z,3.90
2022-10-05T21:17:16.286Z,4.50
2022-10-05T21:19:45.382Z,4.20
2022-10-05T21:22:14.267Z,4.20
2022-10-05T21:24:42.955Z,4.00
2022-10-05T21:27:12.184Z,4.60
2022-10-05T21:29:44.564Z,4.50
2022-10-05T21:32:13.110Z,4.50
2022-10-05T21:34:41.902Z,4.30
2022-10-05T21:37:10.789Z,4.10
2022-10-05T21:39:39.480Z,4.30
2022-10-05T21:42:08.168Z,4.30
2022-10-05T21:44:37.056Z,4.70
2022-10-05T21:47:07.465Z,4.10
2022-10-05T21:49:36.986Z,4.60
2022-10-05T21:52:06.086Z,4.30
2022-10-05T21:54:35.385Z,4.00
2022-10-05T21:57:04.073Z,4.70
2022-10-05T21:59:34.909Z,4.30
2022-10-05T22:02:03.901Z,4.10
2022-10-05T22:04:32.589Z,4.80
2022-10-05T22:07:01.437Z,4.20
2022-10-05T22:09:29.968Z,4.80
2022-10-05T22:11:58.443Z,5.10
2022-10-05T22:14:28.668Z,4.70
2022-10-05T22:16:57.557Z,4.30
2022-10-05T22:19:26.406Z,4.40
2022-10-05T22:21:54.929Z,4.80
2022-10-05T22:24:23.415Z,4.90
2022-10-05T22:26:51.997Z,4.60
2022-10-05T22:29:21.504Z,4.90
2022-10-05T22:31:50.441Z,4.70
2022-10-05T22:34:19.182Z,4.80
2022-10-05T22:36:48.277Z,5.30
2022-10-05T22:39:17.903Z,5.20
2022-10-05T22:41:47.091Z,5.60
2022-10-05T22:44:15.676Z,5.60
2022-10-05T22:46:44.375Z,5.00
2022-10-05T22:49:13.451Z,4.80
2022-10-05T22:51:42.445Z,4.70
2022-10-05T22:54:11.145Z,4.90
2022-10-05T22:56:39.923Z,4.30
2022-10-05T22:59:08.608Z,4.70
2022-10-05T23:01:37.423Z,4.40
2022-10-05T23:04:06.084Z,4.40
2022-10-05T23:06:34.978Z,4.30
2022-10-05T23:09:03.984Z,4.30
2022-10-05T23:11:32.556Z,4.30
2022-10-05T23:14:01.241Z,4.30
2022-10-05T23:16:30.281Z,4.00
2022-10-05T23:19:00.397Z,4.60
2022-10-05T23:21:30.621Z,4.30
2022-10-05T23:23:59.265Z,4.50
2022-10-05T23:26:27.870Z,4.40
2022-10-05T23:28:56.733Z,4.10
2022-10-05T23:31:28.289Z,4.10
2022-10-05T23:33:57.387Z,4.20
2022-10-05T23:36:31.610Z,4.20
2022-10-05T23:39:00.599Z,4.40
2022-10-05T23:41:29.383Z,4.60
2022-10-05T23:43:57.967Z,4.60
2022-10-05T23:46:26.632Z,4.30
2022-10-05T23:48:55.342Z,4.60
2022-10-05T23:51:23.927Z,4.90
2022-10-05T23:53:52.516Z,4.50
2022-10-05T23:56:20.954Z,4.80
2022-10-05T23:58:49.580Z,4.80
